Time;durP1;ratioP1;P1;durP2;ratioP2;P2;SDS_P1;SDS_P2;PMS_P1;PMS_P2;Temp;Humidity;BMP_temperature;BMP_pressure;BME280_temperature;BME280_humidity;BME280_pressure;Samples;Min_cycle;Max_cycle;Signal;HPM_P1;HPM_P2
2021/01/17 00:08:11;;;;;;;11.53;7.13;;;;;;;18.90;29.68;101274.28;31332046;28;20295;-66
2021/01/17 00:23:12;;;;;;;9.15;5.90;;;;;;;17.19;27.43;101270.84;31349139;28;20630;-66
2021/01/17 00:38:13;;;;;;;6.32;4.70;;;;;;;17.52;29.06;101256.28;31333733;28;20475;-66
2021/01/17 00:53:14;;;;;;;6.53;4.53;;;;;;;17.77;29.80;101227.31;31346101;28;20067;-66
2021/01/17 01:08:15;;;;;;;6.23;3.97;;;;;;;17.83;30.52;101219.97;31338092;28;20776;-68
2021/01/17 01:23:16;;;;;;;5.75;4.10;;;;;;;17.81;31.41;101214.81;31455072;28;20328;-67
2021/01/17 01:38:17;;;;;;;5.83;3.47;;;;;;;17.77;32.05;101202.78;31416756;28;20041;-66
2021/01/17 01:53:18;;;;;;;6.30;3.20;;;;;;;17.75;32.08;101192.41;31477490;28;20298;-67
2021/01/17 02:08:23;;;;;;;5.93;3.50;;;;;;;17.84;32.25;101175.13;31444833;28;20290;-67
2021/01/17 02:23:39;;;;;;;6.32;3.65;;;;;;;17.83;32.20;101173.47;31484241;28;20286;-67
2021/01/17 02:38:47;;;;;;;5.43;3.30;;;;;;;17.79;32.52;101167.53;31466315;28;20036;-67
2021/01/17 02:54:01;;;;;;;5.65;3.13;;;;;;;17.73;32.83;101169.78;31485256;28;20024;-67
2021/01/17 03:09:02;;;;;;;5.15;3.15;;;;;;;17.62;32.75;101160.06;31437673;28;20106;-67
2021/01/17 03:24:03;;;;;;;5.05;3.20;;;;;;;17.50;33.22;101180.19;31412175;28;20041;-67
2021/01/17 03:39:05;;;;;;;5.45;3.00;;;;;;;17.44;33.41;101164.03;31432771;28;20037;-67
2021/01/17 03:54:06;;;;;;;5.45;3.30;;;;;;;17.45;33.54;101169.16;31457454;28;20444;-67
2021/01/17 04:09:07;;;;;;;3.83;3.00;;;;;;;17.49;33.55;101173.25;31486893;28;20058;-67
2021/01/17 04:24:08;;;;;;;4.10;2.73;;;;;;;17.43;33.72;101164.97;31439649;28;20025;-67
2021/01/17 04:39:09;;;;;;;4.63;3.10;;;;;;;17.36;33.95;101175.94;31468258;28;20295;-67
2021/01/17 04:54:10;;;;;;;4.93;3.50;;;;;;;17.31;33.93;101177.19;31478485;28;20308;-66
2021/01/17 05:09:11;;;;;;;5.00;3.40;;;;;;;17.21;34.15;101189.31;31435868;28;20287;-66
2021/01/17 05:24:12;;;;;;;5.30;3.77;;;;;;;17.17;34.11;101186.88;31424818;28;20285;-67
2021/01/17 05:39:13;;;;;;;4.60;2.90;;;;;;;17.16;34.03;101193.09;31479343;28;20333;-67
2021/01/17 05:54:14;;;;;;;4.28;3.10;;;;;;;17.23;34.29;101200.56;31484997;28;20040;-67
2021/01/17 06:09:17;;;;;;;4.63;3.20;;;;;;;17.16;34.42;101218.53;31484113;28;20086;-67
2021/01/17 06:24:18;;;;;;;5.35;3.53;;;;;;;17.10;34.38;101218.94;31480402;28;20024;-67
2021/01/17 06:39:21;;;;;;;5.85;3.10;;;;;;;16.99;34.38;101222.31;31448166;28;20036;-67
2021/01/17 06:54:23;;;;;;;4.40;2.85;;;;;;;16.97;34.59;101245.22;31407428;28;20387;-67
2021/01/17 07:09:25;;;;;;;4.47;3.40;;;;;;;16.98;34.33;101251.31;31434261;28;20406;-67
2021/01/17 07:24:26;;;;;;;4.10;2.85;;;;;;;17.05;34.33;101249.94;31458604;28;20375;-67
2021/01/17 07:39:27;;;;;;;4.82;2.90;;;;;;;17.08;34.28;101258.44;31437600;28;20078;-67
2021/01/17 07:54:28;;;;;;;4.32;2.80;;;;;;;17.02;34.26;101271.16;31454942;28;20246;-66
2021/01/17 08:09:43;;;;;;;3.63;2.65;;;;;;;16.91;34.30;101270.13;31469499;28;20059;-67
2021/01/17 08:24:44;;;;;;;5.00;2.80;;;;;;;16.92;34.31;101278.81;31441001;28;20475;-67
2021/01/17 08:39:47;;;;;;;4.70;3.00;;;;;;;17.02;34.26;101289.53;31440969;28;20028;-70
2021/01/17 08:54:48;;;;;;;5.38;3.00;;;;;;;17.21;34.82;101300.47;31429802;28;20486;-68
2021/01/17 09:10:08;;;;;;;4.78;2.78;;;;;;;17.30;35.22;101305.09;31433814;28;20102;-68
2021/01/17 09:25:10;;;;;;;4.05;2.90;;;;;;;17.43;35.15;101326.13;31431344;28;20032;-68
2021/01/17 09:40:11;;;;;;;4.05;2.65;;;;;;;17.46;35.16;101339.03;31424554;28;20062;-69
2021/01/17 09:55:12;;;;;;;4.07;2.60;;;;;;;17.43;35.39;101347.16;31424923;28;20063;-69
2021/01/17 10:10:13;;;;;;;4.78;2.65;;;;;;;17.45;35.31;101358.38;31406589;28;20048;-70
2021/01/17 10:25:17;;;;;;;4.45;2.80;;;;;;;17.42;35.76;101361.22;31473689;28;20029;-66
2021/01/17 10:40:26;;;;;;;5.25;3.78;;;;;;;17.62;33.83;101369.53;31418970;28;20049;-66
2021/01/17 10:55:30;;;;;;;5.80;3.58;;;;;;;18.11;32.53;101381.88;31402900;28;20053;-66
2021/01/17 11:10:31;;;;;;;10.40;5.45;;;;;;;18.45;34.21;101384.72;31373810;28;20064;-65
2021/01/17 11:25:32;;;;;;;11.57;5.03;;;;;;;18.12;35.40;101378.28;31444052;28;20659;-68
2021/01/17 11:40:33;;;;;;;12.13;5.70;;;;;;;18.86;35.34;101381.69;31426107;28;20028;-68
2021/01/17 11:55:34;;;;;;;13.27;8.93;;;;;;;19.00;29.83;101373.59;31455765;28;20040;-68
2021/01/17 12:10:35;;;;;;;12.32;8.70;;;;;;;19.29;28.64;101383.72;31437683;28;20033;-68
2021/01/17 12:25:36;;;;;;;16.93;10.37;;;;;;;19.43;26.46;101372.94;31447895;28;20045;-71
2021/01/17 12:40:37;;;;;;;12.07;9.13;;;;;;;19.43;30.52;101380.03;31435348;28;20655;-70
2021/01/17 12:55:40;;;;;;;12.30;7.80;;;;;;;19.56;31.66;101369.34;31435753;28;20306;-70
2021/01/17 13:10:40;;;;;;;9.48;6.43;;;;;;;19.60;31.76;101379.53;31449766;28;20279;-70
2021/01/17 13:25:42;;;;;;;8.80;6.17;;;;;;;19.70;31.88;101385.00;31448481;28;20397;-70
2021/01/17 13:40:43;;;;;;;9.48;6.32;;;;;;;19.79;31.78;101384.28;31425852;28;20306;-70
2021/01/17 13:55:44;;;;;;;8.17;6.03;;;;;;;19.96;31.28;101388.22;31463117;28;20032;-70
2021/01/17 14:10:45;;;;;;;8.60;5.97;;;;;;;19.94;31.40;101405.97;31487757;28;20679;-70
2021/01/17 14:25:46;;;;;;;9.27;5.53;;;;;;;19.95;31.64;101417.34;31460231;28;20059;-69
2021/01/17 14:40:47;;;;;;;10.52;7.55;;;;;;;15.69;32.94;101429.13;31473391;28;20289;-68
2021/01/17 14:55:48;;;;;;;11.05;6.55;;;;;;;17.82;33.81;101426.88;31475686;28;20044;-68
2021/01/17 15:10:49;;;;;;;8.68;6.07;;;;;;;18.84;32.53;101449.44;31453946;28;20037;-68
2021/01/17 15:25:50;;;;;;;6.77;4.87;;;;;;;19.36;32.11;101450.84;31456608;28;20478;-73
2021/01/17 15:40:51;;;;;;;7.90;5.70;;;;;;;19.62;31.77;101459.38;31465232;28;20289;-69
2021/01/17 15:55:52;;;;;;;7.13;5.20;;;;;;;19.82;31.40;101473.72;31461634;28;20664;-69
2021/01/17 16:10:54;;;;;;;7.77;5.90;;;;;;;19.94;30.93;101490.38;31493716;28;20274;-67
2021/01/17 16:25:55;;;;;;;7.63;5.22;;;;;;;20.07;31.13;101501.69;31474315;28;20355;-69
2021/01/17 16:40:56;;;;;;;7.85;5.35;;;;;;;20.12;30.88;101516.31;31479710;28;20071;-71
2021/01/17 16:55:57;;;;;;;10.53;6.00;;;;;;;20.14;31.71;101523.16;31452710;28;20033;-72
2021/01/17 17:10:59;;;;;;;8.93;5.30;;;;;;;20.18;31.87;101537.78;31470603;28;20780;-72
2021/01/17 17:25:59;;;;;;;10.32;7.90;;;;;;;20.35;28.84;101560.22;31452386;28;20324;-70
2021/01/17 17:41:00;;;;;;;12.87;7.23;;;;;;;20.39;30.55;101555.56;31482818;28;20035;-70
2021/01/17 17:56:02;;;;;;;9.07;6.87;;;;;;;20.42;30.96;101565.88;31480583;28;20783;-69
2021/01/17 18:11:03;;;;;;;10.57;7.53;;;;;;;20.45;30.47;101578.81;31465903;28;20275;-69
2021/01/17 18:26:04;;;;;;;9.68;7.53;;;;;;;20.52;30.26;101572.09;31466223;28;20071;-69
2021/01/17 18:41:05;;;;;;;10.80;7.60;;;;;;;20.62;30.69;101564.34;31480781;28;20393;-70
2021/01/17 18:56:06;;;;;;;15.20;11.73;;;;;;;20.60;26.80;101553.06;31483937;28;20283;-68
2021/01/17 19:11:07;;;;;;;10.50;8.35;;;;;;;20.55;30.18;101549.88;31468570;28;20638;-70
2021/01/17 19:26:10;;;;;;;10.30;8.13;;;;;;;20.66;30.26;101544.63;31467721;28;20026;-69
2021/01/17 19:41:11;;;;;;;9.40;7.40;;;;;;;20.80;30.52;101543.50;31427117;28;20283;-70
2021/01/17 19:56:12;;;;;;;11.80;9.03;;;;;;;20.71;29.06;101566.25;31456419;28;20048;-70
2021/01/17 20:11:15;;;;;;;23.83;18.13;;;;;;;18.31;20.85;101565.50;31469484;28;20294;-70
2021/01/17 20:26:35;;;;;;;15.43;10.77;;;;;;;13.69;34.34;101584.88;31451988;28;20290;-69
2021/01/17 20:41:38;;;;;;;15.27;10.85;;;;;;;17.09;31.29;101569.25;31431216;28;20176;-69
2021/01/17 20:56:39;;;;;;;13.20;10.82;;;;;;;18.68;29.18;101580.50;31426657;28;20476;-68
2021/01/17 21:11:40;;;;;;;13.63;10.60;;;;;;;19.39;28.80;101553.41;31432910;28;20041;-69
2021/01/17 21:26:41;;;;;;;14.73;11.07;;;;;;;19.70;30.05;101553.78;31415634;28;20036;-68
2021/01/17 21:41:42;;;;;;;14.38;11.38;;;;;;;19.72;28.67;101549.22;31427802;28;20505;-68
2021/01/17 21:56:43;;;;;;;16.53;12.60;;;;;;;19.71;28.36;101544.06;31434829;28;20039;-68
2021/01/17 22:11:45;;;;;;;14.23;11.23;;;;;;;19.55;29.94;101532.00;31476982;28;20291;-69
2021/01/17 22:26:46;;;;;;;18.08;13.68;;;;;;;18.56;27.98;101548.84;31473405;28;21275;-69
2021/01/17 22:41:47;;;;;;;15.48;12.07;;;;;;;18.31;30.41;101547.06;31485038;28;20509;-68
2021/01/17 22:56:48;;;;;;;15.93;12.10;;;;;;;18.56;31.07;101542.72;31449813;28;20039;-66
2021/01/17 23:11:49;;;;;;;13.93;11.57;;;;;;;18.58;31.94;101533.78;31502688;28;20397;-67
2021/01/17 23:26:50;;;;;;;15.60;11.95;;;;;;;18.53;32.40;101527.13;31461570;28;20039;-67
2021/01/17 23:41:58;;;;;;;14.15;11.88;;;;;;;18.41;32.33;101518.31;31463406;28;20042;-67
2021/01/17 23:57:03;;;;;;;15.30;10.85;;;;;;;18.31;32.53;101506.75;31462561;28;20552;-67
